createdAt,value
2023-05-25T00:00:28.240Z,70.90
2023-05-25T00:03:32.182Z,71.00
2023-05-25T00:06:13.319Z,70.97
2023-05-25T00:08:58.296Z,71.17
2023-05-25T00:11:35.063Z,71.49
2023-05-25T00:14:26.984Z,71.36
2023-05-25T00:17:06.434Z,71.37
2023-05-25T00:19:45.245Z,71.76
2023-05-25T00:22:29.285Z,71.70
2023-05-25T00:25:11.599Z,71.57
2023-05-25T00:28:06.594Z,71.51
2023-05-25T00:30:46.277Z,71.41
2023-05-25T00:33:32.741Z,71.55
2023-05-25T00:36:10.540Z,71.54
2023-05-25T00:39:01.237Z,71.50
2023-05-25T00:41:36.887Z,71.36
2023-05-25T00:44:25.853Z,71.43
2023-05-25T00:47:11.962Z,71.46
2023-05-25T00:50:05.504Z,71.17
2023-05-25T00:52:59.484Z,71.20
2023-05-25T00:55:39.125Z,71.38
2023-05-25T00:58:19.897Z,71.54
2023-05-25T01:01:00.149Z,71.82
2023-05-25T01:03:45.987Z,71.82
2023-05-25T01:06:37.142Z,71.89
2023-05-25T01:09:28.252Z,71.82
2023-05-25T01:12:06.251Z,71.99
2023-05-25T01:14:48.796Z,72.27
2023-05-25T01:17:29.882Z,72.24
2023-05-25T01:20:18.537Z,72.26
2023-05-25T01:23:17.796Z,72.42
2023-05-25T01:26:02.866Z,72.29
2023-05-25T01:28:52.031Z,72.32
2023-05-25T01:31:39.788Z,72.33
2023-05-25T01:34:31.784Z,72.42
2023-05-25T01:37:18.211Z,72.34
2023-05-25T01:40:01.916Z,72.46
2023-05-25T01:42:47.299Z,72.49
2023-05-25T01:45:39.356Z,72.55
2023-05-25T01:48:43.853Z,72.76
2023-05-25T01:52:16.687Z,72.95
2023-05-25T01:55:06.552Z,72.97
2023-05-25T01:58:02.955Z,72.83
2023-05-25T02:00:50.218Z,72.88
2023-05-25T02:03:40.461Z,73.08
2023-05-25T02:06:32.184Z,72.99
2023-05-25T02:09:18.892Z,73.66
2023-05-25T02:12:10.615Z,73.73
2023-05-25T02:15:12.185Z,73.62
2023-05-25T02:18:05.972Z,73.96
2023-05-25T02:20:53.577Z,74.20
2023-05-25T02:23:33.726Z,74.50
2023-05-25T02:26:17.064Z,74.86
2023-05-25T02:29:00.384Z,75.03
2023-05-25T02:31:43.632Z,75.05
2023-05-25T02:34:23.351Z,75.09
2023-05-25T02:37:05.143Z,75.23
2023-05-25T02:39:54.000Z,75.40
2023-05-25T02:42:36.301Z,75.48
2023-05-25T02:45:19.023Z,75.32
2023-05-25T02:47:55.043Z,74.81
2023-05-25T02:50:35.852Z,74.69
2023-05-25T02:53:18.553Z,74.53
2023-05-25T02:55:53.483Z,74.28
2023-05-25T02:58:29.332Z,74.14
2023-05-25T03:01:32.241Z,73.84
2023-05-25T03:04:22.203Z,73.47
2023-05-25T03:06:53.960Z,73.26
2023-05-25T03:09:33.802Z,73.08
2023-05-25T03:12:13.138Z,73.17
2023-05-25T03:14:54.756Z,73.04
2023-05-25T03:17:32.949Z,73.14
2023-05-25T03:20:07.772Z,72.62
2023-05-25T03:22:44.229Z,72.43
2023-05-25T03:25:15.825Z,72.69
2023-05-25T03:27:54.522Z,72.49
2023-05-25T03:30:30.759Z,72.21
2023-05-25T03:33:04.984Z,71.92
2023-05-25T03:35:43.295Z,71.83
2023-05-25T03:38:17.603Z,71.87
2023-05-25T03:40:55.312Z,71.90
2023-05-25T03:43:33.552Z,72.16
2023-05-25T03:46:08.176Z,72.36
2023-05-25T03:48:50.645Z,72.30
2023-05-25T03:51:24.988Z,72.38
2023-05-25T03:53:56.403Z,72.42
2023-05-25T03:56:27.544Z,72.27
2023-05-25T03:59:03.923Z,72.12
2023-05-25T04:01:38.534Z,71.97
2023-05-25T04:04:12.704Z,71.88
2023-05-25T04:06:49.199Z,71.75
2023-05-25T04:09:33.048Z,71.57
2023-05-25T04:12:10.540Z,71.64
2023-05-25T04:14:46.390Z,71.62
2023-05-25T04:17:19.279Z,71.70
2023-05-25T04:19:50.842Z,71.84
2023-05-25T04:22:25.351Z,71.69
2023-05-25T04:24:54.280Z,71.47
2023-05-25T04:27:23.846Z,71.53
2023-05-25T04:29:54.592Z,71.35
2023-05-25T04:32:46.860Z,71.37
2023-05-25T04:35:31.897Z,71.55
2023-05-25T04:38:03.162Z,71.54
2023-05-25T04:40:33.557Z,71.72
2023-05-25T04:43:03.666Z,71.64
2023-05-25T04:45:33.637Z,71.62
2023-05-25T04:48:04.029Z,71.73
2023-05-25T04:50:35.397Z,71.99
2023-05-25T04:53:04.342Z,72.02
2023-05-25T04:55:45.871Z,72.04
2023-05-25T04:58:18.449Z,71.78
2023-05-25T05:00:47.500Z,71.87
2023-05-25T05:03:16.786Z,72.00
2023-05-25T05:05:49.176Z,71.90
2023-05-25T05:08:26.201Z,71.74
2023-05-25T05:10:55.031Z,71.59
2023-05-25T05:13:25.359Z,71.55
2023-05-25T05:15:57.321Z,71.50
2023-05-25T05:18:26.311Z,71.36
2023-05-25T05:20:57.757Z,71.30
2023-05-25T05:23:28.193Z,71.48
2023-05-25T05:25:57.273Z,71.40
2023-05-25T05:28:27.703Z,71.54
2023-05-25T05:30:56.651Z,71.54
2023-05-25T05:33:26.728Z,71.60
2023-05-25T05:35:55.698Z,71.13
2023-05-25T05:38:26.121Z,70.93
2023-05-25T05:40:54.919Z,70.74
2023-05-25T05:43:24.927Z,70.46
2023-05-25T05:45:54.660Z,70.46
2023-05-25T05:48:23.460Z,70.45
2023-05-25T05:50:52.718Z,70.16
2023-05-25T05:53:22.015Z,69.93
2023-05-25T05:55:56.073Z,70.03
2023-05-25T05:58:29.573Z,69.51
2023-05-25T06:01:00.462Z,69.18
2023-05-25T06:03:29.272Z,68.59
2023-05-25T06:05:57.940Z,68.42
2023-05-25T06:08:27.744Z,68.26
2023-05-25T06:10:56.427Z,68.13
2023-05-25T06:13:25.355Z,67.42
2023-05-25T06:15:53.801Z,67.20
2023-05-25T06:18:24.781Z,67.22
2023-05-25T06:20:53.723Z,66.90
2023-05-25T06:23:22.207Z,66.47
2023-05-25T06:25:52.835Z,66.05
2023-05-25T06:28:21.316Z,66.06
2023-05-25T06:30:50.917Z,66.51
2023-05-25T06:33:19.393Z,65.72
2023-05-25T06:35:48.038Z,65.61
2023-05-25T06:38:16.879Z,65.43
2023-05-25T06:40:45.276Z,64.39
2023-05-25T06:43:13.618Z,64.29
2023-05-25T06:46:09.790Z,64.21
2023-05-25T06:48:39.675Z,64.01
2023-05-25T06:51:08.035Z,64.31
2023-05-25T06:53:36.662Z,64.10
2023-05-25T06:56:05.109Z,63.78
2023-05-25T06:58:33.482Z,63.24
2023-05-25T07:01:01.995Z,63.24
2023-05-25T07:03:30.537Z,63.21
2023-05-25T07:05:58.814Z,62.80
2023-05-25T07:08:27.405Z,62.72
2023-05-25T07:10:56.194Z,62.29
2023-05-25T07:13:24.578Z,61.88
2023-05-25T07:15:53.073Z,62.36
2023-05-25T07:18:21.722Z,62.33
2023-05-25T07:20:50.002Z,62.38
2023-05-25T07:23:18.378Z,62.21
2023-05-25T07:25:47.167Z,61.71
2023-05-25T07:28:16.276Z,60.66
2023-05-25T07:30:44.740Z,59.49
2023-05-25T07:33:13.138Z,58.55
2023-05-25T07:35:42.012Z,58.60
2023-05-25T07:38:10.894Z,59.75
2023-05-25T07:40:39.272Z,60.18
2023-05-25T07:43:08.482Z,60.01
2023-05-25T07:45:37.060Z,59.79
2023-05-25T07:48:07.626Z,60.38
2023-05-25T07:50:36.260Z,60.74
2023-05-25T07:53:04.839Z,61.08
2023-05-25T07:55:33.116Z,60.51
2023-05-25T07:58:01.593Z,60.42
2023-05-25T08:00:30.379Z,60.66
2023-05-25T08:02:59.149Z,61.01
2023-05-25T08:05:27.954Z,60.44
2023-05-25T08:07:56.640Z,60.33
2023-05-25T08:10:31.497Z,60.43
2023-05-25T08:13:00.147Z,60.08
2023-05-25T08:15:28.533Z,60.37
2023-05-25T08:17:57.016Z,60.34
2023-05-25T08:20:26.480Z,60.37
2023-05-25T08:22:54.896Z,60.21
2023-05-25T08:25:23.268Z,59.85
2023-05-25T08:27:51.532Z,59.91
2023-05-25T08:30:19.918Z,59.78
2023-05-25T08:32:48.564Z,59.52
2023-05-25T08:35:17.792Z,60.35
2023-05-25T08:37:46.995Z,60.66
2023-05-25T08:40:17.232Z,60.83
2023-05-25T08:42:46.821Z,61.51
2023-05-25T08:45:26.895Z,61.66
2023-05-25T08:48:02.134Z,61.46
2023-05-25T08:50:31.416Z,60.93
2023-05-25T08:53:02.033Z,61.15
2023-05-25T08:55:32.660Z,60.78
2023-05-25T08:58:11.464Z,61.03
2023-05-25T09:00:43.921Z,60.48
2023-05-25T09:03:18.310Z,60.56
2023-05-25T09:05:47.889Z,60.25
2023-05-25T09:08:17.907Z,60.09
2023-05-25T09:10:46.281Z,59.75
2023-05-25T09:13:22.054Z,59.20
2023-05-25T09:15:52.423Z,58.75
2023-05-25T09:18:21.618Z,58.57
2023-05-25T09:20:50.267Z,58.05
2023-05-25T09:23:19.433Z,58.15
2023-05-25T09:25:50.983Z,58.54
2023-05-25T09:30:52.450Z,58.71
2023-05-25T09:33:21.322Z,57.62
2023-05-25T09:35:49.758Z,58.28
2023-05-25T09:38:18.430Z,58.74
2023-05-25T09:40:47.745Z,58.53
2023-05-25T09:43:28.324Z,58.08
2023-05-25T09:46:05.709Z,57.78
2023-05-25T09:48:34.760Z,57.47
2023-05-25T09:51:03.320Z,56.88
2023-05-25T09:53:32.415Z,57.83
2023-05-25T09:56:02.596Z,57.80
2023-05-25T09:58:32.341Z,57.44
2023-05-25T10:01:01.132Z,56.93
2023-05-25T10:03:29.611Z,57.22
2023-05-25T10:05:58.113Z,57.09
2023-05-25T10:08:29.123Z,56.96
2023-05-25T10:10:57.710Z,57.32
2023-05-25T10:13:27.627Z,56.79
2023-05-25T10:15:55.927Z,56.40
2023-05-25T10:18:27.190Z,56.12
2023-05-25T10:21:03.180Z,55.81
2023-05-25T10:23:38.202Z,55.41
2023-05-25T10:26:06.826Z,55.53
2023-05-25T10:28:38.420Z,55.80
2023-05-25T10:31:07.702Z,55.47
2023-05-25T10:33:36.185Z,54.66
2023-05-25T10:36:10.811Z,54.66
2023-05-25T10:38:40.789Z,54.11
2023-05-25T10:41:10.031Z,54.14
2023-05-25T10:43:40.105Z,53.43
2023-05-25T10:46:09.042Z,52.47
2023-05-25T10:48:45.496Z,52.96
2023-05-25T10:51:14.643Z,52.90
2023-05-25T10:53:47.226Z,52.61
2023-05-25T10:56:15.595Z,52.67
2023-05-25T10:58:47.558Z,52.70
2023-05-25T11:01:16.706Z,51.71
2023-05-25T11:03:45.556Z,51.07
2023-05-25T11:06:15.970Z,50.71
2023-05-25T11:09:01.346Z,50.16
2023-05-25T11:11:45.793Z,49.82
2023-05-25T11:14:42.566Z,49.39
2023-05-25T11:17:15.341Z,48.88
2023-05-25T11:19:47.928Z,49.11
2023-05-25T11:22:40.375Z,48.68
2023-05-25T11:25:40.671Z,48.98
2023-05-25T11:28:11.910Z,48.91
2023-05-25T11:30:42.195Z,48.94
2023-05-25T11:33:11.417Z,48.28
2023-05-25T11:35:40.410Z,48.93
2023-05-25T11:38:08.891Z,49.01
2023-05-25T11:40:39.291Z,49.12
2023-05-25T11:43:08.923Z,49.44
2023-05-25T11:45:38.572Z,48.96
2023-05-25T11:48:07.151Z,49.15
2023-05-25T11:50:36.102Z,49.07
2023-05-25T11:53:07.554Z,48.62
2023-05-25T11:55:36.550Z,46.60
2023-05-25T11:58:04.824Z,44.38
2023-05-25T12:00:33.548Z,42.63
2023-05-25T12:03:02.570Z,39.90
2023-05-25T12:05:38.846Z,38.40
2023-05-25T12:08:07.233Z,37.03
2023-05-25T12:10:50.313Z,35.55
2023-05-25T12:13:18.960Z,35.00
2023-05-25T12:15:47.616Z,33.91
2023-05-25T12:18:16.100Z,33.02
2023-05-25T12:20:44.847Z,34.04
2023-05-25T12:23:13.680Z,33.74
2023-05-25T12:25:50.457Z,34.32
2023-05-25T12:28:19.740Z,35.05
2023-05-25T12:30:48.085Z,35.55
2023-05-25T12:33:16.772Z,36.02
2023-05-25T12:35:47.623Z,36.56
2023-05-25T12:38:18.817Z,35.94
2023-05-25T12:40:47.384Z,35.80
2023-05-25T12:43:17.742Z,34.14
2023-05-25T12:45:46.374Z,34.76
2023-05-25T12:48:14.837Z,34.08
2023-05-25T12:50:59.016Z,32.90
2023-05-25T12:53:29.244Z,32.03
2023-05-25T12:56:04.414Z,31.18
2023-05-25T12:58:32.759Z,31.57
2023-05-25T13:01:01.219Z,30.85
2023-05-25T13:03:29.482Z,30.65
2023-05-25T13:06:02.734Z,30.70
2023-05-25T13:08:31.357Z,30.15
2023-05-25T13:11:00.350Z,29.49
2023-05-25T13:13:28.632Z,29.51
2023-05-25T13:15:58.511Z,29.96
2023-05-25T13:18:27.020Z,28.85
2023-05-25T13:20:56.795Z,28.63
2023-05-25T13:23:25.829Z,28.46
2023-05-25T13:25:54.204Z,27.96
2023-05-25T13:28:22.888Z,26.99
2023-05-25T13:30:51.156Z,27.26
2023-05-25T13:33:19.652Z,27.31
2023-05-25T13:36:08.138Z,27.04
2023-05-25T13:38:37.694Z,27.31
2023-05-25T13:41:05.966Z,27.08
2023-05-25T13:43:34.243Z,26.60
2023-05-25T13:46:02.537Z,26.69
2023-05-25T13:48:30.869Z,26.57
2023-05-25T13:51:00.193Z,26.30
2023-05-25T13:53:28.567Z,26.58
2023-05-25T13:55:56.944Z,26.54
2023-05-25T13:58:25.424Z,26.78
2023-05-25T14:00:53.929Z,27.55
2023-05-25T14:03:22.745Z,28.23
2023-05-25T14:05:52.907Z,28.85
2023-05-25T14:08:21.199Z,28.86
2023-05-25T14:10:49.460Z,28.45
2023-05-25T14:13:17.990Z,27.55
2023-05-25T14:15:46.845Z,27.44
2023-05-25T14:18:16.055Z,27.58
2023-05-25T14:20:44.408Z,28.28
2023-05-25T14:23:15.163Z,28.13
2023-05-25T14:25:44.717Z,27.82
2023-05-25T14:28:13.284Z,27.18
2023-05-25T14:30:41.699Z,26.88
2023-05-25T14:33:14.365Z,26.82
2023-05-25T14:35:43.275Z,26.52
2023-05-25T14:38:11.906Z,26.74
2023-05-25T14:40:40.332Z,27.82
2023-05-25T14:43:08.707Z,28.70
2023-05-25T14:45:36.973Z,29.36
2023-05-25T14:48:15.998Z,30.29
2023-05-25T14:50:45.710Z,31.13
2023-05-25T14:53:14.095Z,31.42
2023-05-25T14:55:42.723Z,31.10
2023-05-25T14:58:11.456Z,30.67
2023-05-25T15:00:39.734Z,29.71
2023-05-25T15:03:08.830Z,28.94
2023-05-25T15:05:37.404Z,28.60
2023-05-25T15:08:05.711Z,28.31
2023-05-25T15:10:34.061Z,27.98
2023-05-25T15:13:02.535Z,27.36
2023-05-25T15:15:31.125Z,27.82
2023-05-25T15:17:59.559Z,28.16
2023-05-25T15:20:27.844Z,27.88
2023-05-25T15:22:56.252Z,27.90
2023-05-25T15:25:35.116Z,27.94
2023-05-25T15:28:04.473Z,28.42
2023-05-25T15:30:34.710Z,28.82
2023-05-25T15:33:03.555Z,29.25
2023-05-25T15:35:32.665Z,29.43
2023-05-25T15:38:01.879Z,28.96
2023-05-25T15:40:30.380Z,29.21
2023-05-25T15:42:58.631Z,28.80
2023-05-25T15:45:27.031Z,29.00
2023-05-25T15:47:55.631Z,28.93
2023-05-25T15:50:23.970Z,29.42
2023-05-25T15:52:52.448Z,29.60
2023-05-25T15:55:21.030Z,29.41
2023-05-25T15:57:49.412Z,29.56
2023-05-25T16:00:18.305Z,29.74
2023-05-25T16:02:46.649Z,29.93
2023-05-25T16:05:15.152Z,29.83
2023-05-25T16:07:43.635Z,30.35
2023-05-25T16:10:11.905Z,30.75
2023-05-25T16:12:40.127Z,31.01
2023-05-25T16:15:09.186Z,31.15
2023-05-25T16:17:37.454Z,31.46
2023-05-25T16:20:07.065Z,31.21
2023-05-25T16:22:35.431Z,30.94
2023-05-25T16:25:03.711Z,30.99
2023-05-25T16:27:32.078Z,30.83
2023-05-25T16:30:00.468Z,31.19
2023-05-25T16:32:29.708Z,31.76
2023-05-25T16:34:58.034Z,32.08
2023-05-25T16:37:26.305Z,32.34
2023-05-25T16:39:54.696Z,32.69
2023-05-25T16:42:25.307Z,33.11
2023-05-25T16:44:53.584Z,33.79
2023-05-25T16:47:21.967Z,34.81
2023-05-25T16:49:50.339Z,35.35
2023-05-25T16:52:18.649Z,36.06
2023-05-25T16:54:46.889Z,36.10
2023-05-25T16:57:15.162Z,37.20
2023-05-25T16:59:43.542Z,37.47
2023-05-25T17:02:11.818Z,37.92
2023-05-25T17:04:40.092Z,38.61
2023-05-25T17:07:08.576Z,39.18
2023-05-25T17:09:36.946Z,39.86
2023-05-25T17:12:06.755Z,40.13
2023-05-25T17:14:35.033Z,40.58
2023-05-25T17:17:04.547Z,41.03
2023-05-25T17:19:32.867Z,41.58
2023-05-25T17:22:01.185Z,41.82
2023-05-25T17:24:29.599Z,42.40
2023-05-25T17:26:58.056Z,43.32
2023-05-25T17:29:26.318Z,43.49
2023-05-25T17:31:54.928Z,44.32
2023-05-25T17:34:23.588Z,44.92
2023-05-25T17:36:51.862Z,45.27
2023-05-25T17:39:20.341Z,45.71
2023-05-25T17:41:50.360Z,46.70
2023-05-25T17:44:18.738Z,47.14
2023-05-25T17:46:47.025Z,46.93
2023-05-25T17:49:15.284Z,49.61
2023-05-25T17:51:43.563Z,50.60
2023-05-25T17:54:15.723Z,51.13
2023-05-25T17:56:44.664Z,52.07
2023-05-25T17:59:13.003Z,52.97
2023-05-25T18:01:42.108Z,54.14
2023-05-25T18:04:10.814Z,54.96
2023-05-25T18:06:39.452Z,56.20
2023-05-25T18:09:07.829Z,57.10
2023-05-25T18:11:36.820Z,57.24
2023-05-25T18:14:05.403Z,58.01
2023-05-25T18:16:39.619Z,58.66
2023-05-25T18:19:09.651Z,59.47
2023-05-25T18:21:38.823Z,61.22
2023-05-25T18:24:08.643Z,62.55
2023-05-25T18:26:36.911Z,62.73
2023-05-25T18:29:05.300Z,62.51
2023-05-25T18:31:34.022Z,62.56
2023-05-25T18:34:02.554Z,62.25
2023-05-25T18:36:31.241Z,61.99
2023-05-25T18:38:59.513Z,61.83
2023-05-25T18:41:27.798Z,62.16
2023-05-25T18:43:56.173Z,61.96
2023-05-25T18:46:25.855Z,60.95
2023-05-25T18:48:54.258Z,61.38
2023-05-25T18:51:25.932Z,62.10
2023-05-25T18:53:55.033Z,62.39
2023-05-25T18:56:23.685Z,62.20
2023-05-25T18:58:54.940Z,62.58
2023-05-25T19:01:26.892Z,62.37
2023-05-25T19:03:58.105Z,62.31
2023-05-25T19:06:27.643Z,62.68
2023-05-25T19:08:56.013Z,62.92
2023-05-25T19:11:24.592Z,63.01
2023-05-25T19:13:52.891Z,63.12
2023-05-25T19:16:21.264Z,63.53
2023-05-25T19:18:49.828Z,63.58
2023-05-25T19:21:18.204Z,63.75
2023-05-25T19:23:46.692Z,63.88
2023-05-25T19:26:15.175Z,63.96
2023-05-25T19:28:46.199Z,63.72
2023-05-25T19:31:14.607Z,64.04
2023-05-25T19:33:43.265Z,64.24
2023-05-25T19:36:11.994Z,64.22
2023-05-25T19:38:42.223Z,64.39
2023-05-25T19:41:11.076Z,64.39
2023-05-25T19:43:39.537Z,64.72
2023-05-25T19:46:08.047Z,64.63
2023-05-25T19:48:36.750Z,64.80
2023-05-25T19:51:05.181Z,64.89
2023-05-25T19:53:33.687Z,65.05
2023-05-25T19:56:03.570Z,65.36
2023-05-25T19:58:35.276Z,65.51
2023-05-25T20:01:03.860Z,65.72
2023-05-25T20:03:32.961Z,65.70
2023-05-25T20:06:01.792Z,65.98
2023-05-25T20:08:33.039Z,65.88
2023-05-25T20:11:01.923Z,66.10
2023-05-25T20:13:30.914Z,66.10
2023-05-25T20:15:59.427Z,66.33
2023-05-25T20:18:28.386Z,66.41
2023-05-25T20:20:57.177Z,66.50
2023-05-25T20:23:28.218Z,66.66
2023-05-25T20:25:56.897Z,66.65
2023-05-25T20:28:28.344Z,66.39
2023-05-25T20:30:59.177Z,66.71
2023-05-25T20:33:27.861Z,66.67
2023-05-25T20:35:59.212Z,66.65
2023-05-25T20:38:27.582Z,66.79
2023-05-25T20:40:56.064Z,66.90
2023-05-25T20:43:24.552Z,66.80
2023-05-25T20:45:56.364Z,66.96
2023-05-25T20:48:27.444Z,66.98
2023-05-25T20:50:56.130Z,67.28
2023-05-25T20:53:27.477Z,67.13
2023-05-25T20:55:57.936Z,67.03
2023-05-25T20:58:28.534Z,67.29
2023-05-25T21:00:59.579Z,67.32
2023-05-25T21:03:31.100Z,67.35
2023-05-25T21:06:02.573Z,67.57
2023-05-25T21:08:36.437Z,67.76
2023-05-25T21:11:05.165Z,67.68
2023-05-25T21:13:34.054Z,67.89
2023-05-25T21:16:03.167Z,67.60
2023-05-25T21:18:33.879Z,67.20
2023-05-25T21:21:04.829Z,67.17
2023-05-25T21:23:36.265Z,67.17
2023-05-25T21:26:05.054Z,67.17
2023-05-25T21:28:38.866Z,67.18
2023-05-25T21:31:07.795Z,66.85
2023-05-25T21:33:37.756Z,66.52
2023-05-25T21:36:08.036Z,66.43
2023-05-25T21:38:38.608Z,66.19
2023-05-25T21:41:07.191Z,66.09
2023-05-25T21:43:38.124Z,65.80
2023-05-25T21:46:09.694Z,65.70
2023-05-25T21:48:40.821Z,65.50
2023-05-25T21:51:09.617Z,66.02
2023-05-25T21:53:38.200Z,65.94
2023-05-25T21:56:09.130Z,66.01
2023-05-25T21:58:40.164Z,65.90
2023-05-25T22:01:12.132Z,65.57
2023-05-25T22:03:40.974Z,65.64
2023-05-25T22:06:10.011Z,65.40
2023-05-25T22:08:41.353Z,65.43
2023-05-25T22:11:12.190Z,65.53
2023-05-25T22:13:40.685Z,65.27
2023-05-25T22:16:09.248Z,65.30
2023-05-25T22:18:38.674Z,66.09
2023-05-25T22:21:07.356Z,66.31
2023-05-25T22:23:35.924Z,66.27
2023-05-25T22:26:05.424Z,65.78
2023-05-25T22:28:34.006Z,66.04
2023-05-25T22:31:02.723Z,65.96
2023-05-25T22:33:31.370Z,65.88
2023-05-25T22:36:00.176Z,65.84
2023-05-25T22:38:28.735Z,65.85
2023-05-25T22:40:59.469Z,65.87
2023-05-25T22:43:30.102Z,65.86
2023-05-25T22:46:00.963Z,65.85
2023-05-25T22:48:29.412Z,66.00
2023-05-25T22:50:58.521Z,65.97
2023-05-25T22:53:27.195Z,66.17
2023-05-25T22:56:00.909Z,66.09
2023-05-25T22:58:31.830Z,66.01
2023-05-25T23:01:00.412Z,66.14
2023-05-25T23:03:30.378Z,66.22
2023-05-25T23:05:58.906Z,66.19
2023-05-25T23:08:28.113Z,66.28
2023-05-25T23:10:56.687Z,66.47
2023-05-25T23:13:28.032Z,66.64
2023-05-25T23:15:56.621Z,66.50
2023-05-25T23:18:25.196Z,66.54
2023-05-25T23:20:53.690Z,66.56
2023-05-25T23:23:25.227Z,66.83
2023-05-25T23:25:57.709Z,66.66
2023-05-25T23:28:28.864Z,66.93
2023-05-25T23:30:57.525Z,66.89
2023-05-25T23:33:26.217Z,67.09
2023-05-25T23:35:57.873Z,67.38
2023-05-25T23:38:29.207Z,67.40
2023-05-25T23:41:00.772Z,67.51
2023-05-25T23:43:29.455Z,67.92
2023-05-25T23:45:58.368Z,68.05
2023-05-25T23:48:32.963Z,68.17
2023-05-25T23:51:01.954Z,68.44
2023-05-25T23:53:30.842Z,68.67
2023-05-25T23:55:59.422Z,68.76
2023-05-25T23:58:28.108Z,68.87
